createdAt,value
2023-07-03T09:16:03.091Z,87.0
2023-07-03T09:29:03.102Z,87.0
2023-07-03T09:42:03.252Z,86.0
2023-07-03T09:55:03.123Z,85.0
2023-07-03T10:08:03.333Z,86.0
2023-07-03T10:21:03.297Z,84.0
2023-07-03T10:34:03.305Z,80.0
2023-07-03T10:47:03.320Z,83.0
2023-07-03T11:00:03.336Z,80.0
2023-07-03T11:13:03.429Z,77.0
2023-07-03T11:52:03.508Z,75.0
2023-07-03T12:05:03.547Z,71.0
2023-07-03T12:18:03.669Z,68.0
2023-07-03T12:31:03.607Z,72.0
2023-07-03T12:44:08.436Z,71.0
2023-07-03T12:57:03.745Z,72.0
2023-07-03T13:10:03.722Z,71.0
2023-07-03T13:23:03.738Z,71.0
2023-07-03T13:36:03.746Z,69.0
2023-07-03T13:49:03.753Z,72.0
2023-07-03T14:02:03.926Z,73.0
2023-07-03T14:15:03.860Z,70.0
2023-07-03T14:28:03.832Z,71.0
2023-07-03T14:41:03.902Z,73.0
2023-07-03T14:54:03.863Z,71.0
2023-07-03T15:07:03.856Z,75.0
2023-07-03T15:20:03.893Z,75.0
2023-07-03T15:33:04.029Z,76.0
2023-07-03T15:46:03.918Z,76.0
2023-07-03T15:59:04.036Z,75.0
2023-07-03T16:12:04.064Z,74.0
2023-07-03T16:25:04.086Z,71.0
2023-07-03T16:38:04.046Z,68.0
2023-07-03T16:51:04.045Z,66.0
2023-07-03T17:04:04.137Z,68.0
2023-07-03T17:17:04.097Z,68.0
2023-07-03T17:30:04.173Z,73.0
2023-07-03T17:43:04.165Z,75.0
2023-07-03T17:56:04.197Z,79.0
2023-07-03T18:09:04.247Z,80.0
2023-07-03T18:22:04.256Z,82.0
2023-07-03T18:35:04.283Z,83.0
2023-07-03T18:48:04.437Z,83.0
2023-07-03T19:01:04.369Z,84.0
2023-07-03T19:14:04.350Z,87.0
2023-07-03T19:27:04.375Z,87.0
2023-07-03T19:40:04.391Z,86.0
2023-07-03T19:53:04.380Z,84.0
2023-07-03T20:06:04.448Z,86.0
2023-07-03T20:19:04.413Z,87.0
2023-07-03T20:32:04.482Z,87.0
2023-07-03T20:45:04.512Z,85.0
2023-07-03T20:58:04.586Z,86.0
2023-07-03T21:11:04.633Z,87.0
2023-07-03T21:24:04.530Z,90.0
2023-07-03T21:37:04.554Z,90.0
2023-07-03T21:50:04.540Z,93.0
2023-07-03T22:03:04.554Z,95.0
2023-07-03T22:16:04.570Z,96.0
2023-07-03T22:29:04.567Z,96.0
2023-07-03T22:42:04.576Z,96.0
2023-07-03T22:55:04.672Z,97.0
2023-07-03T23:08:04.656Z,97.0
2023-07-03T23:21:04.715Z,97.0
2023-07-03T23:34:04.716Z,97.0
2023-07-03T23:47:04.842Z,97.0
